sensor_id;sensor_type;location;lat;lon;timestamp;P1;durP1;ratioP1;P2;durP2;ratioP2
11797;SDS011;5956;51.428;6.682;2022-12-11T00:02:17;49.70;;;27.67;;
11797;SDS011;5956;51.428;6.682;2022-12-11T00:04:43;55.37;;;26.10;;
11797;SDS011;5956;51.428;6.682;2022-12-11T00:07:10;53.27;;;27.87;;
11797;SDS011;5956;51.428;6.682;2022-12-11T00:09:36;50.97;;;27.40;;
11797;SDS011;5956;51.428;6.682;2022-12-11T00:12:05;50.77;;;27.03;;
11797;SDS011;5956;51.428;6.682;2022-12-11T00:14:32;53.73;;;28.67;;
11797;SDS011;5956;51.428;6.682;2022-12-11T00:16:58;53.57;;;28.10;;
11797;SDS011;5956;51.428;6.682;2022-12-11T00:19:25;53.53;;;27.17;;
11797;SDS011;5956;51.428;6.682;2022-12-11T00:21:51;47.77;;;25.77;;
11797;SDS011;5956;51.428;6.682;2022-12-11T00:24:18;47.53;;;25.63;;
11797;SDS011;5956;51.428;6.682;2022-12-11T00:26:44;42.03;;;24.30;;
11797;SDS011;5956;51.428;6.682;2022-12-11T00:29:12;44.37;;;24.37;;
11797;SDS011;5956;51.428;6.682;2022-12-11T00:31:39;39.50;;;23.33;;
11797;SDS011;5956;51.428;6.682;2022-12-11T00:34:06;38.10;;;22.80;;
11797;SDS011;5956;51.428;6.682;2022-12-11T00:36:33;43.37;;;23.93;;
11797;SDS011;5956;51.428;6.682;2022-12-11T00:39:00;48.17;;;25.53;;
11797;SDS011;5956;51.428;6.682;2022-12-11T00:41:27;44.03;;;23.90;;
11797;SDS011;5956;51.428;6.682;2022-12-11T00:43:55;39.93;;;21.87;;
11797;SDS011;5956;51.428;6.682;2022-12-11T00:46:22;40.93;;;21.37;;
11797;SDS011;5956;51.428;6.682;2022-12-11T00:48:49;38.30;;;21.93;;
11797;SDS011;5956;51.428;6.682;2022-12-11T00:51:16;39.33;;;21.23;;
11797;SDS011;5956;51.428;6.682;2022-12-11T00:53:43;36.50;;;21.03;;
11797;SDS011;5956;51.428;6.682;2022-12-11T00:56:11;39.27;;;21.13;;
11797;SDS011;5956;51.428;6.682;2022-12-11T00:58:38;36.13;;;20.60;;
11797;SDS011;5956;51.428;6.682;2022-12-11T01:01:05;39.03;;;20.30;;
11797;SDS011;5956;51.428;6.682;2022-12-11T01:03:34;42.87;;;23.13;;
11797;SDS011;5956;51.428;6.682;2022-12-11T01:06:01;34.33;;;21.40;;
11797;SDS011;5956;51.428;6.682;2022-12-11T01:08:27;35.17;;;20.10;;
11797;SDS011;5956;51.428;6.682;2022-12-11T01:10:59;35.23;;;21.67;;
11797;SDS011;5956;51.428;6.682;2022-12-11T01:13:25;37.60;;;21.50;;
11797;SDS011;5956;51.428;6.682;2022-12-11T01:15:52;38.57;;;21.60;;
11797;SDS011;5956;51.428;6.682;2022-12-11T01:18:18;39.30;;;22.83;;
11797;SDS011;5956;51.428;6.682;2022-12-11T01:20:46;35.13;;;20.80;;
11797;SDS011;5956;51.428;6.682;2022-12-11T01:23:13;38.27;;;22.33;;
11797;SDS011;5956;51.428;6.682;2022-12-11T01:25:39;38.23;;;21.77;;
11797;SDS011;5956;51.428;6.682;2022-12-11T01:28:07;41.13;;;22.60;;
11797;SDS011;5956;51.428;6.682;2022-12-11T01:30:34;43.17;;;22.70;;
11797;SDS011;5956;51.428;6.682;2022-12-11T01:33:01;41.83;;;23.53;;
11797;SDS011;5956;51.428;6.682;2022-12-11T01:35:27;41.10;;;22.43;;
11797;SDS011;5956;51.428;6.682;2022-12-11T01:37:55;42.13;;;22.87;;
11797;SDS011;5956;51.428;6.682;2022-12-11T01:40:23;39.77;;;23.10;;
11797;SDS011;5956;51.428;6.682;2022-12-11T01:42:50;46.30;;;23.90;;
11797;SDS011;5956;51.428;6.682;2022-12-11T01:45:25;42.93;;;24.20;;
11797;SDS011;5956;51.428;6.682;2022-12-11T01:47:52;44.03;;;23.87;;
11797;SDS011;5956;51.428;6.682;2022-12-11T01:50:20;46.20;;;24.93;;
11797;SDS011;5956;51.428;6.682;2022-12-11T01:52:47;48.30;;;25.60;;
11797;SDS011;5956;51.428;6.682;2022-12-11T01:55:16;48.03;;;25.03;;
11797;SDS011;5956;51.428;6.682;2022-12-11T01:57:43;45.70;;;24.97;;
11797;SDS011;5956;51.428;6.682;2022-12-11T02:00:11;44.00;;;24.23;;
11797;SDS011;5956;51.428;6.682;2022-12-11T02:02:37;46.27;;;24.27;;
11797;SDS011;5956;51.428;6.682;2022-12-11T02:05:04;39.97;;;23.30;;
11797;SDS011;5956;51.428;6.682;2022-12-11T02:07:33;43.83;;;22.63;;
11797;SDS011;5956;51.428;6.682;2022-12-11T02:10:02;41.10;;;24.53;;
11797;SDS011;5956;51.428;6.682;2022-12-11T02:12:32;43.43;;;24.17;;
11797;SDS011;5956;51.428;6.682;2022-12-11T02:15:04;37.97;;;22.00;;
11797;SDS011;5956;51.428;6.682;2022-12-11T02:17:37;43.17;;;23.50;;
11797;SDS011;5956;51.428;6.682;2022-12-11T02:20:06;47.10;;;23.33;;
11797;SDS011;5956;51.428;6.682;2022-12-11T02:22:42;41.13;;;22.97;;
11797;SDS011;5956;51.428;6.682;2022-12-11T02:25:14;41.37;;;22.87;;
11797;SDS011;5956;51.428;6.682;2022-12-11T02:27:45;45.37;;;26.10;;
11797;SDS011;5956;51.428;6.682;2022-12-11T02:30:14;41.87;;;23.50;;
11797;SDS011;5956;51.428;6.682;2022-12-11T02:32:44;42.03;;;23.13;;
11797;SDS011;5956;51.428;6.682;2022-12-11T02:35:12;49.73;;;28.63;;
11797;SDS011;5956;51.428;6.682;2022-12-11T02:37:41;45.53;;;25.60;;
11797;SDS011;5956;51.428;6.682;2022-12-11T02:40:10;49.60;;;25.07;;
11797;SDS011;5956;51.428;6.682;2022-12-11T02:42:39;48.07;;;25.47;;
11797;SDS011;5956;51.428;6.682;2022-12-11T02:45:07;45.80;;;25.07;;
11797;SDS011;5956;51.428;6.682;2022-12-11T02:47:35;46.53;;;25.40;;
11797;SDS011;5956;51.428;6.682;2022-12-11T02:50:02;46.13;;;25.67;;
11797;SDS011;5956;51.428;6.682;2022-12-11T02:52:32;45.93;;;25.70;;
11797;SDS011;5956;51.428;6.682;2022-12-11T02:55:00;49.17;;;24.53;;
11797;SDS011;5956;51.428;6.682;2022-12-11T02:57:30;51.33;;;25.87;;
11797;SDS011;5956;51.428;6.682;2022-12-11T02:59:58;50.23;;;25.77;;
11797;SDS011;5956;51.428;6.682;2022-12-11T03:02:25;49.43;;;26.50;;
11797;SDS011;5956;51.428;6.682;2022-12-11T03:04:53;51.80;;;25.17;;
11797;SDS011;5956;51.428;6.682;2022-12-11T03:07:22;47.70;;;26.50;;
11797;SDS011;5956;51.428;6.682;2022-12-11T03:09:50;48.30;;;26.17;;
11797;SDS011;5956;51.428;6.682;2022-12-11T03:12:17;49.00;;;27.27;;
11797;SDS011;5956;51.428;6.682;2022-12-11T03:14:44;50.83;;;27.63;;
11797;SDS011;5956;51.428;6.682;2022-12-11T03:17:13;47.17;;;25.30;;
11797;SDS011;5956;51.428;6.682;2022-12-11T03:19:40;49.20;;;26.30;;
11797;SDS011;5956;51.428;6.682;2022-12-11T03:22:15;50.87;;;26.60;;
11797;SDS011;5956;51.428;6.682;2022-12-11T03:24:43;48.97;;;26.67;;
11797;SDS011;5956;51.428;6.682;2022-12-11T03:27:12;47.60;;;25.47;;
11797;SDS011;5956;51.428;6.682;2022-12-11T03:29:43;49.20;;;27.63;;
11797;SDS011;5956;51.428;6.682;2022-12-11T03:32:12;48.87;;;26.93;;
11797;SDS011;5956;51.428;6.682;2022-12-11T03:34:40;51.73;;;28.40;;
11797;SDS011;5956;51.428;6.682;2022-12-11T03:37:08;50.70;;;27.03;;
11797;SDS011;5956;51.428;6.682;2022-12-11T03:39:37;56.17;;;27.33;;
11797;SDS011;5956;51.428;6.682;2022-12-11T03:42:04;49.63;;;26.77;;
11797;SDS011;5956;51.428;6.682;2022-12-11T03:44:32;49.20;;;28.50;;
11797;SDS011;5956;51.428;6.682;2022-12-11T03:47:00;47.27;;;26.73;;
11797;SDS011;5956;51.428;6.682;2022-12-11T03:49:28;51.37;;;27.90;;
11797;SDS011;5956;51.428;6.682;2022-12-11T03:51:57;48.30;;;26.13;;
11797;SDS011;5956;51.428;6.682;2022-12-11T03:54:25;46.53;;;26.03;;
11797;SDS011;5956;51.428;6.682;2022-12-11T03:56:54;48.17;;;25.50;;
11797;SDS011;5956;51.428;6.682;2022-12-11T03:59:21;50.33;;;26.23;;
11797;SDS011;5956;51.428;6.682;2022-12-11T04:01:48;45.23;;;25.83;;
11797;SDS011;5956;51.428;6.682;2022-12-11T04:04:15;45.77;;;26.67;;
11797;SDS011;5956;51.428;6.682;2022-12-11T04:06:42;46.87;;;25.17;;
11797;SDS011;5956;51.428;6.682;2022-12-11T04:09:08;44.30;;;26.63;;
11797;SDS011;5956;51.428;6.682;2022-12-11T04:11:35;45.10;;;25.10;;
11797;SDS011;5956;51.428;6.682;2022-12-11T04:14:04;42.40;;;25.03;;
11797;SDS011;5956;51.428;6.682;2022-12-11T04:16:44;42.60;;;25.23;;
11797;SDS011;5956;51.428;6.682;2022-12-11T04:19:10;41.07;;;24.73;;
11797;SDS011;5956;51.428;6.682;2022-12-11T04:21:54;39.73;;;23.53;;
11797;SDS011;5956;51.428;6.682;2022-12-11T04:24:38;42.13;;;23.47;;
11797;SDS011;5956;51.428;6.682;2022-12-11T04:27:03;39.77;;;23.40;;
11797;SDS011;5956;51.428;6.682;2022-12-11T04:29:30;38.57;;;23.23;;
11797;SDS011;5956;51.428;6.682;2022-12-11T04:31:56;39.37;;;23.93;;
11797;SDS011;5956;51.428;6.682;2022-12-11T04:34:23;37.63;;;23.30;;
11797;SDS011;5956;51.428;6.682;2022-12-11T04:36:50;37.50;;;23.43;;
11797;SDS011;5956;51.428;6.682;2022-12-11T04:39:16;36.27;;;23.23;;
11797;SDS011;5956;51.428;6.682;2022-12-11T04:41:43;35.57;;;23.37;;
11797;SDS011;5956;51.428;6.682;2022-12-11T04:44:09;35.30;;;22.70;;
11797;SDS011;5956;51.428;6.682;2022-12-11T04:46:37;40.20;;;23.80;;
11797;SDS011;5956;51.428;6.682;2022-12-11T04:49:04;38.07;;;23.63;;
11797;SDS011;5956;51.428;6.682;2022-12-11T04:51:30;34.90;;;22.03;;
11797;SDS011;5956;51.428;6.682;2022-12-11T04:53:57;38.37;;;22.97;;
11797;SDS011;5956;51.428;6.682;2022-12-11T04:56:23;37.07;;;23.43;;
11797;SDS011;5956;51.428;6.682;2022-12-11T04:58:50;33.30;;;22.97;;
11797;SDS011;5956;51.428;6.682;2022-12-11T05:01:17;36.73;;;23.40;;
11797;SDS011;5956;51.428;6.682;2022-12-11T05:03:45;35.17;;;22.20;;
11797;SDS011;5956;51.428;6.682;2022-12-11T05:06:13;40.17;;;23.87;;
11797;SDS011;5956;51.428;6.682;2022-12-11T05:08:40;35.13;;;22.57;;
11797;SDS011;5956;51.428;6.682;2022-12-11T05:11:08;39.17;;;22.80;;
11797;SDS011;5956;51.428;6.682;2022-12-11T05:13:36;36.73;;;22.23;;
11797;SDS011;5956;51.428;6.682;2022-12-11T05:16:03;34.73;;;23.90;;
11797;SDS011;5956;51.428;6.682;2022-12-11T05:18:30;36.10;;;23.00;;
11797;SDS011;5956;51.428;6.682;2022-12-11T05:20:59;35.87;;;23.27;;
11797;SDS011;5956;51.428;6.682;2022-12-11T05:23:26;37.43;;;23.53;;
11797;SDS011;5956;51.428;6.682;2022-12-11T05:25:53;37.00;;;23.53;;
11797;SDS011;5956;51.428;6.682;2022-12-11T05:28:20;37.10;;;23.93;;
11797;SDS011;5956;51.428;6.682;2022-12-11T05:30:47;36.67;;;24.03;;
11797;SDS011;5956;51.428;6.682;2022-12-11T05:33:14;35.17;;;23.17;;
11797;SDS011;5956;51.428;6.682;2022-12-11T05:35:45;36.23;;;23.47;;
11797;SDS011;5956;51.428;6.682;2022-12-11T05:38:13;37.40;;;24.33;;
11797;SDS011;5956;51.428;6.682;2022-12-11T05:40:39;38.30;;;23.63;;
11797;SDS011;5956;51.428;6.682;2022-12-11T05:43:06;37.27;;;24.07;;
11797;SDS011;5956;51.428;6.682;2022-12-11T05:45:33;43.60;;;25.90;;
11797;SDS011;5956;51.428;6.682;2022-12-11T05:47:59;39.20;;;24.83;;
11797;SDS011;5956;51.428;6.682;2022-12-11T05:50:26;34.10;;;23.73;;
11797;SDS011;5956;51.428;6.682;2022-12-11T05:52:53;34.97;;;23.40;;
11797;SDS011;5956;51.428;6.682;2022-12-11T05:55:21;35.10;;;23.70;;
11797;SDS011;5956;51.428;6.682;2022-12-11T05:57:48;36.37;;;24.10;;
11797;SDS011;5956;51.428;6.682;2022-12-11T06:00:14;36.03;;;25.17;;
11797;SDS011;5956;51.428;6.682;2022-12-11T06:02:41;35.70;;;24.17;;
11797;SDS011;5956;51.428;6.682;2022-12-11T06:05:07;34.93;;;23.07;;
11797;SDS011;5956;51.428;6.682;2022-12-11T06:07:34;37.20;;;22.67;;
11797;SDS011;5956;51.428;6.682;2022-12-11T06:10:00;36.67;;;24.33;;
11797;SDS011;5956;51.428;6.682;2022-12-11T06:12:28;37.50;;;24.37;;
11797;SDS011;5956;51.428;6.682;2022-12-11T06:14:55;35.70;;;22.90;;
11797;SDS011;5956;51.428;6.682;2022-12-11T06:17:21;34.20;;;21.53;;
11797;SDS011;5956;51.428;6.682;2022-12-11T06:19:48;38.10;;;25.23;;
11797;SDS011;5956;51.428;6.682;2022-12-11T06:22:14;35.53;;;24.00;;
11797;SDS011;5956;51.428;6.682;2022-12-11T06:24:41;37.37;;;24.13;;
11797;SDS011;5956;51.428;6.682;2022-12-11T06:27:08;38.03;;;24.03;;
11797;SDS011;5956;51.428;6.682;2022-12-11T06:29:36;36.50;;;24.23;;
11797;SDS011;5956;51.428;6.682;2022-12-11T06:32:02;31.80;;;22.23;;
11797;SDS011;5956;51.428;6.682;2022-12-11T06:34:29;37.80;;;24.00;;
11797;SDS011;5956;51.428;6.682;2022-12-11T06:36:55;38.40;;;23.23;;
11797;SDS011;5956;51.428;6.682;2022-12-11T06:39:22;34.47;;;22.33;;
11797;SDS011;5956;51.428;6.682;2022-12-11T06:41:48;36.40;;;22.57;;
11797;SDS011;5956;51.428;6.682;2022-12-11T06:44:15;35.63;;;22.63;;
11797;SDS011;5956;51.428;6.682;2022-12-11T06:46:43;34.07;;;22.30;;
11797;SDS011;5956;51.428;6.682;2022-12-11T06:49:09;36.67;;;22.53;;
11797;SDS011;5956;51.428;6.682;2022-12-11T06:51:36;38.57;;;23.83;;
11797;SDS011;5956;51.428;6.682;2022-12-11T06:54:02;32.73;;;21.73;;
11797;SDS011;5956;51.428;6.682;2022-12-11T06:56:29;32.83;;;21.00;;
11797;SDS011;5956;51.428;6.682;2022-12-11T06:58:55;33.30;;;21.13;;
11797;SDS011;5956;51.428;6.682;2022-12-11T07:01:23;31.93;;;20.13;;
11797;SDS011;5956;51.428;6.682;2022-12-11T07:03:52;32.03;;;20.87;;
11797;SDS011;5956;51.428;6.682;2022-12-11T07:06:19;33.70;;;21.07;;
11797;SDS011;5956;51.428;6.682;2022-12-11T07:08:46;32.40;;;21.00;;
11797;SDS011;5956;51.428;6.682;2022-12-11T07:11:13;31.23;;;20.07;;
11797;SDS011;5956;51.428;6.682;2022-12-11T07:13:40;32.50;;;20.93;;
11797;SDS011;5956;51.428;6.682;2022-12-11T07:16:07;40.80;;;22.53;;
11797;SDS011;5956;51.428;6.682;2022-12-11T07:18:35;32.07;;;21.50;;
11797;SDS011;5956;51.428;6.682;2022-12-11T07:21:03;33.10;;;22.73;;
11797;SDS011;5956;51.428;6.682;2022-12-11T07:23:29;34.53;;;22.53;;
11797;SDS011;5956;51.428;6.682;2022-12-11T07:25:56;32.57;;;22.17;;
11797;SDS011;5956;51.428;6.682;2022-12-11T07:28:23;33.07;;;22.83;;
11797;SDS011;5956;51.428;6.682;2022-12-11T07:30:50;37.07;;;22.53;;
11797;SDS011;5956;51.428;6.682;2022-12-11T07:33:16;32.73;;;22.27;;
11797;SDS011;5956;51.428;6.682;2022-12-11T07:35:43;36.40;;;22.97;;
11797;SDS011;5956;51.428;6.682;2022-12-11T07:38:11;38.80;;;23.10;;
11797;SDS011;5956;51.428;6.682;2022-12-11T07:40:37;37.53;;;23.93;;
11797;SDS011;5956;51.428;6.682;2022-12-11T07:43:04;29.63;;;20.77;;
11797;SDS011;5956;51.428;6.682;2022-12-11T07:45:30;33.63;;;22.23;;
11797;SDS011;5956;51.428;6.682;2022-12-11T07:47:57;37.90;;;21.90;;
11797;SDS011;5956;51.428;6.682;2022-12-11T07:50:23;33.37;;;21.93;;
11797;SDS011;5956;51.428;6.682;2022-12-11T07:52:50;36.53;;;24.23;;
11797;SDS011;5956;51.428;6.682;2022-12-11T07:55:18;40.17;;;24.93;;
11797;SDS011;5956;51.428;6.682;2022-12-11T07:57:45;33.53;;;21.97;;
11797;SDS011;5956;51.428;6.682;2022-12-11T08:00:12;33.27;;;22.07;;
11797;SDS011;5956;51.428;6.682;2022-12-11T08:02:39;36.07;;;21.80;;
11797;SDS011;5956;51.428;6.682;2022-12-11T08:05:06;31.27;;;21.30;;
11797;SDS011;5956;51.428;6.682;2022-12-11T08:07:33;31.07;;;21.00;;
11797;SDS011;5956;51.428;6.682;2022-12-11T08:09:59;32.40;;;21.77;;
11797;SDS011;5956;51.428;6.682;2022-12-11T08:12:27;32.20;;;20.93;;
11797;SDS011;5956;51.428;6.682;2022-12-11T08:14:54;31.37;;;22.13;;
11797;SDS011;5956;51.428;6.682;2022-12-11T08:17:21;31.00;;;20.17;;
11797;SDS011;5956;51.428;6.682;2022-12-11T08:19:47;31.13;;;21.00;;
11797;SDS011;5956;51.428;6.682;2022-12-11T08:22:14;34.07;;;21.50;;
11797;SDS011;5956;51.428;6.682;2022-12-11T08:24:40;31.87;;;22.47;;
11797;SDS011;5956;51.428;6.682;2022-12-11T08:27:07;50.23;;;31.87;;
11797;SDS011;5956;51.428;6.682;2022-12-11T08:29:35;34.63;;;24.67;;
11797;SDS011;5956;51.428;6.682;2022-12-11T08:32:02;36.70;;;22.90;;
11797;SDS011;5956;51.428;6.682;2022-12-11T08:34:29;29.13;;;20.27;;
11797;SDS011;5956;51.428;6.682;2022-12-11T08:36:55;31.77;;;20.60;;
11797;SDS011;5956;51.428;6.682;2022-12-11T08:39:22;33.47;;;21.30;;
11797;SDS011;5956;51.428;6.682;2022-12-11T08:41:49;31.00;;;20.70;;
11797;SDS011;5956;51.428;6.682;2022-12-11T08:44:16;26.93;;;19.37;;
11797;SDS011;5956;51.428;6.682;2022-12-11T08:46:44;29.13;;;20.17;;
11797;SDS011;5956;51.428;6.682;2022-12-11T08:49:11;25.37;;;19.07;;
11797;SDS011;5956;51.428;6.682;2022-12-11T08:51:37;28.97;;;19.73;;
11797;SDS011;5956;51.428;6.682;2022-12-11T08:54:04;27.60;;;18.47;;
11797;SDS011;5956;51.428;6.682;2022-12-11T08:56:31;26.73;;;17.97;;
11797;SDS011;5956;51.428;6.682;2022-12-11T08:58:58;22.53;;;17.70;;
11797;SDS011;5956;51.428;6.682;2022-12-11T09:01:25;24.40;;;18.47;;
11797;SDS011;5956;51.428;6.682;2022-12-11T09:03:54;25.80;;;18.23;;
11797;SDS011;5956;51.428;6.682;2022-12-11T09:06:22;21.13;;;16.80;;
11797;SDS011;5956;51.428;6.682;2022-12-11T09:08:49;21.80;;;16.37;;
11797;SDS011;5956;51.428;6.682;2022-12-11T09:11:16;20.50;;;16.23;;
11797;SDS011;5956;51.428;6.682;2022-12-11T09:13:43;25.13;;;18.07;;
11797;SDS011;5956;51.428;6.682;2022-12-11T09:16:10;23.13;;;16.07;;
11797;SDS011;5956;51.428;6.682;2022-12-11T09:18:37;23.23;;;16.03;;
11797;SDS011;5956;51.428;6.682;2022-12-11T09:21:06;23.10;;;15.80;;
11797;SDS011;5956;51.428;6.682;2022-12-11T09:23:33;21.17;;;16.17;;
11797;SDS011;5956;51.428;6.682;2022-12-11T09:26:01;19.13;;;15.60;;
11797;SDS011;5956;51.428;6.682;2022-12-11T09:28:28;21.43;;;16.17;;
11797;SDS011;5956;51.428;6.682;2022-12-11T09:30:56;18.77;;;14.57;;
11797;SDS011;5956;51.428;6.682;2022-12-11T09:33:22;20.37;;;14.57;;
11797;SDS011;5956;51.428;6.682;2022-12-11T09:35:55;18.40;;;14.83;;
11797;SDS011;5956;51.428;6.682;2022-12-11T09:38:23;18.23;;;14.47;;
11797;SDS011;5956;51.428;6.682;2022-12-11T09:40:50;21.30;;;14.17;;
11797;SDS011;5956;51.428;6.682;2022-12-11T09:43:19;16.93;;;13.87;;
11797;SDS011;5956;51.428;6.682;2022-12-11T09:45:50;20.47;;;14.90;;
11797;SDS011;5956;51.428;6.682;2022-12-11T09:48:19;18.13;;;13.43;;
11797;SDS011;5956;51.428;6.682;2022-12-11T09:50:47;17.97;;;13.53;;
11797;SDS011;5956;51.428;6.682;2022-12-11T09:53:17;17.33;;;13.93;;
11797;SDS011;5956;51.428;6.682;2022-12-11T09:55:48;18.37;;;14.07;;
11797;SDS011;5956;51.428;6.682;2022-12-11T09:58:19;18.70;;;13.17;;
11797;SDS011;5956;51.428;6.682;2022-12-11T10:00:48;17.10;;;13.83;;
11797;SDS011;5956;51.428;6.682;2022-12-11T10:03:23;14.63;;;13.00;;
11797;SDS011;5956;51.428;6.682;2022-12-11T10:05:54;17.40;;;12.73;;
11797;SDS011;5956;51.428;6.682;2022-12-11T10:08:24;18.27;;;13.00;;
11797;SDS011;5956;51.428;6.682;2022-12-11T10:10:56;19.07;;;14.80;;
11797;SDS011;5956;51.428;6.682;2022-12-11T10:13:27;17.73;;;14.07;;
11797;SDS011;5956;51.428;6.682;2022-12-11T10:15:56;19.37;;;13.60;;
11797;SDS011;5956;51.428;6.682;2022-12-11T10:18:25;17.30;;;13.43;;
11797;SDS011;5956;51.428;6.682;2022-12-11T10:20:53;18.63;;;14.40;;
11797;SDS011;5956;51.428;6.682;2022-12-11T10:23:22;17.63;;;13.40;;
11797;SDS011;5956;51.428;6.682;2022-12-11T10:25:51;18.13;;;13.67;;
11797;SDS011;5956;51.428;6.682;2022-12-11T10:28:20;22.13;;;14.40;;
11797;SDS011;5956;51.428;6.682;2022-12-11T10:30:47;21.23;;;13.83;;
11797;SDS011;5956;51.428;6.682;2022-12-11T10:33:17;18.47;;;13.80;;
11797;SDS011;5956;51.428;6.682;2022-12-11T10:35:46;19.33;;;13.80;;
11797;SDS011;5956;51.428;6.682;2022-12-11T10:38:14;17.60;;;14.10;;
11797;SDS011;5956;51.428;6.682;2022-12-11T10:40:42;17.80;;;13.93;;
11797;SDS011;5956;51.428;6.682;2022-12-11T10:43:10;20.87;;;15.37;;
11797;SDS011;5956;51.428;6.682;2022-12-11T10:45:38;20.43;;;14.40;;
11797;SDS011;5956;51.428;6.682;2022-12-11T10:48:06;16.90;;;14.03;;
11797;SDS011;5956;51.428;6.682;2022-12-11T10:50:34;16.97;;;13.90;;
11797;SDS011;5956;51.428;6.682;2022-12-11T10:53:01;19.60;;;15.20;;
11797;SDS011;5956;51.428;6.682;2022-12-11T10:55:28;18.43;;;14.80;;
11797;SDS011;5956;51.428;6.682;2022-12-11T10:57:57;17.87;;;14.63;;
11797;SDS011;5956;51.428;6.682;2022-12-11T11:00:27;22.30;;;15.40;;
11797;SDS011;5956;51.428;6.682;2022-12-11T11:02:56;22.60;;;15.67;;
11797;SDS011;5956;51.428;6.682;2022-12-11T11:05:27;21.83;;;16.10;;
11797;SDS011;5956;51.428;6.682;2022-12-11T11:08:01;19.93;;;15.80;;
11797;SDS011;5956;51.428;6.682;2022-12-11T11:10:28;18.10;;;14.20;;
11797;SDS011;5956;51.428;6.682;2022-12-11T11:12:59;17.37;;;15.50;;
11797;SDS011;5956;51.428;6.682;2022-12-11T11:15:26;18.97;;;14.17;;
11797;SDS011;5956;51.428;6.682;2022-12-11T11:17:54;18.60;;;14.00;;
11797;SDS011;5956;51.428;6.682;2022-12-11T11:20:24;19.00;;;14.80;;
11797;SDS011;5956;51.428;6.682;2022-12-11T11:22:53;18.97;;;14.47;;
11797;SDS011;5956;51.428;6.682;2022-12-11T11:25:21;20.07;;;16.20;;
11797;SDS011;5956;51.428;6.682;2022-12-11T11:27:49;20.17;;;14.63;;
11797;SDS011;5956;51.428;6.682;2022-12-11T11:30:18;20.37;;;15.50;;
11797;SDS011;5956;51.428;6.682;2022-12-11T11:32:44;19.83;;;15.97;;
11797;SDS011;5956;51.428;6.682;2022-12-11T11:35:16;19.47;;;16.17;;
11797;SDS011;5956;51.428;6.682;2022-12-11T11:37:45;21.73;;;16.23;;
11797;SDS011;5956;51.428;6.682;2022-12-11T11:40:14;20.47;;;16.37;;
11797;SDS011;5956;51.428;6.682;2022-12-11T11:42:43;20.83;;;16.33;;
11797;SDS011;5956;51.428;6.682;2022-12-11T11:45:13;20.40;;;15.80;;
11797;SDS011;5956;51.428;6.682;2022-12-11T11:47:43;23.77;;;17.00;;
11797;SDS011;5956;51.428;6.682;2022-12-11T11:50:11;25.93;;;16.13;;
11797;SDS011;5956;51.428;6.682;2022-12-11T11:52:40;24.07;;;16.57;;
11797;SDS011;5956;51.428;6.682;2022-12-11T11:55:14;21.40;;;16.13;;
11797;SDS011;5956;51.428;6.682;2022-12-11T11:57:44;23.63;;;15.87;;
11797;SDS011;5956;51.428;6.682;2022-12-11T12:00:16;18.40;;;14.20;;
11797;SDS011;5956;51.428;6.682;2022-12-11T12:02:45;20.17;;;15.23;;
11797;SDS011;5956;51.428;6.682;2022-12-11T12:05:13;20.00;;;14.83;;
11797;SDS011;5956;51.428;6.682;2022-12-11T12:07:42;17.90;;;14.47;;
11797;SDS011;5956;51.428;6.682;2022-12-11T12:10:15;16.13;;;13.20;;
11797;SDS011;5956;51.428;6.682;2022-12-11T12:12:46;20.50;;;14.40;;
11797;SDS011;5956;51.428;6.682;2022-12-11T12:15:18;16.40;;;12.50;;
11797;SDS011;5956;51.428;6.682;2022-12-11T12:17:48;15.90;;;13.43;;
11797;SDS011;5956;51.428;6.682;2022-12-11T12:20:17;14.80;;;13.03;;
11797;SDS011;5956;51.428;6.682;2022-12-11T12:22:48;15.13;;;13.00;;
11797;SDS011;5956;51.428;6.682;2022-12-11T12:25:21;16.83;;;14.63;;
11797;SDS011;5956;51.428;6.682;2022-12-11T12:27:52;18.60;;;14.63;;
11797;SDS011;5956;51.428;6.682;2022-12-11T12:30:21;18.60;;;14.37;;
11797;SDS011;5956;51.428;6.682;2022-12-11T12:32:51;17.27;;;14.07;;
11797;SDS011;5956;51.428;6.682;2022-12-11T12:35:26;16.30;;;14.57;;
11797;SDS011;5956;51.428;6.682;2022-12-11T12:37:55;19.47;;;14.90;;
11797;SDS011;5956;51.428;6.682;2022-12-11T12:40:27;18.47;;;14.53;;
11797;SDS011;5956;51.428;6.682;2022-12-11T12:42:59;16.70;;;14.77;;
11797;SDS011;5956;51.428;6.682;2022-12-11T12:45:29;19.00;;;14.63;;
11797;SDS011;5956;51.428;6.682;2022-12-11T12:47:57;17.40;;;15.50;;
11797;SDS011;5956;51.428;6.682;2022-12-11T12:50:25;18.43;;;15.40;;
11797;SDS011;5956;51.428;6.682;2022-12-11T12:52:54;15.90;;;14.03;;
11797;SDS011;5956;51.428;6.682;2022-12-11T12:55:24;18.57;;;15.07;;
11797;SDS011;5956;51.428;6.682;2022-12-11T12:57:55;29.80;;;24.50;;
11797;SDS011;5956;51.428;6.682;2022-12-11T13:00:26;18.70;;;16.70;;
11797;SDS011;5956;51.428;6.682;2022-12-11T13:02:53;17.77;;;15.60;;
11797;SDS011;5956;51.428;6.682;2022-12-11T13:05:22;17.67;;;15.27;;
11797;SDS011;5956;51.428;6.682;2022-12-11T13:07:49;17.83;;;15.33;;
11797;SDS011;5956;51.428;6.682;2022-12-11T13:10:22;19.57;;;16.27;;
11797;SDS011;5956;51.428;6.682;2022-12-11T13:12:49;17.97;;;16.07;;
11797;SDS011;5956;51.428;6.682;2022-12-11T13:17:59;21.07;;;16.47;;
11797;SDS011;5956;51.428;6.682;2022-12-11T13:20:27;21.23;;;17.20;;
11797;SDS011;5956;51.428;6.682;2022-12-11T13:22:55;20.60;;;17.13;;
11797;SDS011;5956;51.428;6.682;2022-12-11T13:25:44;22.60;;;17.43;;
11797;SDS011;5956;51.428;6.682;2022-12-11T13:28:19;22.83;;;18.03;;
11797;SDS011;5956;51.428;6.682;2022-12-11T13:30:55;23.43;;;17.63;;
11797;SDS011;5956;51.428;6.682;2022-12-11T13:33:24;21.03;;;17.80;;
11797;SDS011;5956;51.428;6.682;2022-12-11T13:36:01;19.70;;;15.70;;
11797;SDS011;5956;51.428;6.682;2022-12-11T13:38:29;20.60;;;15.83;;
11797;SDS011;5956;51.428;6.682;2022-12-11T13:40:55;21.43;;;16.30;;
11797;SDS011;5956;51.428;6.682;2022-12-11T13:43:24;19.37;;;15.57;;
11797;SDS011;5956;51.428;6.682;2022-12-11T13:45:52;20.43;;;16.60;;
11797;SDS011;5956;51.428;6.682;2022-12-11T13:48:21;17.93;;;14.90;;
11797;SDS011;5956;51.428;6.682;2022-12-11T13:50:51;20.33;;;15.07;;
11797;SDS011;5956;51.428;6.682;2022-12-11T13:53:19;18.73;;;15.50;;
11797;SDS011;5956;51.428;6.682;2022-12-11T13:55:54;20.23;;;15.90;;
11797;SDS011;5956;51.428;6.682;2022-12-11T13:58:22;15.77;;;12.80;;
11797;SDS011;5956;51.428;6.682;2022-12-11T14:00:53;18.97;;;14.00;;
11797;SDS011;5956;51.428;6.682;2022-12-11T14:03:22;18.00;;;14.20;;
11797;SDS011;5956;51.428;6.682;2022-12-11T14:05:51;17.73;;;14.57;;
11797;SDS011;5956;51.428;6.682;2022-12-11T14:08:19;16.43;;;13.03;;
11797;SDS011;5956;51.428;6.682;2022-12-11T14:10:49;17.30;;;14.00;;
11797;SDS011;5956;51.428;6.682;2022-12-11T14:13:17;18.33;;;13.67;;
11797;SDS011;5956;51.428;6.682;2022-12-11T14:15:45;16.27;;;13.60;;
11797;SDS011;5956;51.428;6.682;2022-12-11T14:18:12;18.27;;;14.20;;
11797;SDS011;5956;51.428;6.682;2022-12-11T14:20:41;18.27;;;14.23;;
11797;SDS011;5956;51.428;6.682;2022-12-11T14:23:14;17.47;;;13.97;;
11797;SDS011;5956;51.428;6.682;2022-12-11T14:25:41;18.33;;;14.50;;
11797;SDS011;5956;51.428;6.682;2022-12-11T14:28:12;16.97;;;13.90;;
11797;SDS011;5956;51.428;6.682;2022-12-11T14:30:43;17.00;;;13.00;;
11797;SDS011;5956;51.428;6.682;2022-12-11T14:33:11;16.03;;;13.53;;
11797;SDS011;5956;51.428;6.682;2022-12-11T14:35:39;17.47;;;13.07;;
11797;SDS011;5956;51.428;6.682;2022-12-11T14:38:09;17.17;;;13.70;;
11797;SDS011;5956;51.428;6.682;2022-12-11T14:40:40;15.87;;;13.13;;
11797;SDS011;5956;51.428;6.682;2022-12-11T14:43:08;16.20;;;12.37;;